createdAt,value
2019-02-03T00:00:46.430Z,2.58
2019-02-03T00:01:46.434Z,2.63
2019-02-03T00:02:46.446Z,2.66
2019-02-03T00:03:46.456Z,2.70
2019-02-03T00:04:46.465Z,2.61
2019-02-03T00:05:46.477Z,2.71
2019-02-03T00:06:46.491Z,2.77
2019-02-03T00:07:46.495Z,2.76
2019-02-03T00:08:46.507Z,2.79
2019-02-03T00:09:46.517Z,2.74
2019-02-03T00:10:46.529Z,2.76
2019-02-03T00:11:46.542Z,2.74
2019-02-03T00:12:46.550Z,2.77
2019-02-03T00:13:46.561Z,2.89
2019-02-03T00:14:46.570Z,2.87
2019-02-03T00:15:46.593Z,2.88
2019-02-03T00:16:46.591Z,2.85
2019-02-03T00:17:46.599Z,2.87
2019-02-03T00:18:46.613Z,2.88
2019-02-03T00:19:46.623Z,2.84
2019-02-03T00:20:46.636Z,2.79
2019-02-03T00:21:46.643Z,2.74
2019-02-03T00:22:46.653Z,2.73
2019-02-03T00:23:46.667Z,2.76
2019-02-03T00:24:46.680Z,2.74
2019-02-03T00:25:46.688Z,2.71
2019-02-03T00:26:46.695Z,2.74
2019-02-03T00:27:46.716Z,2.76
2019-02-03T00:28:46.724Z,2.70
2019-02-03T00:29:46.729Z,2.66
2019-02-03T00:30:46.738Z,2.66
2019-02-03T00:31:46.749Z,2.52
2019-02-03T00:32:46.764Z,2.59
2019-02-03T00:33:46.773Z,2.44
2019-02-03T00:34:46.781Z,2.53
2019-02-03T00:35:46.792Z,2.35
2019-02-03T00:36:46.799Z,2.38
2019-02-03T00:37:46.849Z,2.44
2019-02-03T00:38:46.825Z,2.37
2019-02-03T00:39:46.861Z,2.40
2019-02-03T00:40:46.884Z,2.37
2019-02-03T00:41:46.847Z,2.40
2019-02-03T00:42:46.864Z,2.33
2019-02-03T00:43:46.871Z,2.31
2019-02-03T00:44:46.882Z,2.30
2019-02-03T00:45:46.895Z,2.31
2019-02-03T00:46:46.919Z,2.26
2019-02-03T00:47:46.915Z,2.34
2019-02-03T00:48:46.929Z,2.30
2019-02-03T00:49:46.933Z,2.35
2019-02-03T00:50:46.951Z,2.34
2019-02-03T00:51:46.958Z,2.30
2019-02-03T00:52:46.965Z,2.28
2019-02-03T00:53:46.976Z,2.20
2019-02-03T00:54:46.980Z,2.22
2019-02-03T00:55:46.997Z,2.23
2019-02-03T00:56:47.004Z,2.12
2019-02-03T00:57:47.012Z,2.06
2019-02-03T00:58:47.027Z,2.09
2019-02-03T00:59:47.045Z,2.04
2019-02-03T01:00:47.139Z,2.01
2019-02-03T01:01:47.059Z,1.98
2019-02-03T01:02:47.067Z,1.98
2019-02-03T01:03:47.076Z,1.83
2019-02-03T01:04:47.094Z,1.79
2019-02-03T01:05:47.103Z,1.75
2019-02-03T01:06:47.106Z,1.82
2019-02-03T01:07:47.116Z,1.85
2019-02-03T01:08:47.136Z,1.79
2019-02-03T01:09:47.143Z,1.80
2019-02-03T01:10:47.152Z,1.79
2019-02-03T01:11:47.160Z,1.89
2019-02-03T01:12:47.171Z,1.89
2019-02-03T01:13:47.233Z,1.82
2019-02-03T01:14:47.185Z,1.83
2019-02-03T01:15:47.198Z,1.89
2019-02-03T01:16:47.223Z,1.93
2019-02-03T01:17:47.224Z,1.83
2019-02-03T01:18:47.235Z,1.83
2019-02-03T01:19:47.243Z,1.89
2019-02-03T01:20:47.248Z,1.87
2019-02-03T01:21:47.261Z,1.98
2019-02-03T01:22:47.268Z,1.89
2019-02-03T01:23:47.286Z,1.90
2019-02-03T01:24:47.296Z,1.90
2019-02-03T01:25:47.300Z,1.87
2019-02-03T01:26:47.309Z,1.89
2019-02-03T01:27:47.326Z,1.91
2019-02-03T01:28:47.332Z,1.97
2019-02-03T01:29:47.338Z,1.98
2019-02-03T01:30:47.354Z,2.09
2019-02-03T01:31:49.244Z,2.04
2019-02-03T01:32:47.379Z,2.09
2019-02-03T01:33:47.386Z,2.12
2019-02-03T01:34:47.396Z,2.22
2019-02-03T01:35:47.406Z,2.12
2019-02-03T01:36:47.423Z,2.17
2019-02-03T01:37:47.429Z,2.08
2019-02-03T01:38:47.432Z,2.20
2019-02-03T01:39:47.447Z,2.20
2019-02-03T01:40:47.457Z,2.09
2019-02-03T01:41:47.466Z,2.22
2019-02-03T01:42:47.479Z,2.10
2019-02-03T01:43:47.484Z,2.09
2019-02-03T01:44:47.497Z,2.20
2019-02-03T01:45:47.505Z,2.19
2019-02-03T01:46:47.520Z,2.15
2019-02-03T01:47:47.526Z,2.30
2019-02-03T01:48:47.534Z,2.22
2019-02-03T01:49:47.548Z,2.31
2019-02-03T01:50:47.555Z,2.28
2019-02-03T01:51:47.628Z,2.35
2019-02-03T01:52:47.583Z,2.33
2019-02-03T01:53:47.590Z,2.35
2019-02-03T01:54:47.611Z,2.34
2019-02-03T01:55:47.610Z,2.41
2019-02-03T01:56:47.619Z,2.33
2019-02-03T01:57:47.660Z,2.46
2019-02-03T01:58:47.642Z,2.37
2019-02-03T01:59:47.653Z,2.40
2019-02-03T02:00:47.663Z,2.38
2019-02-03T02:01:47.675Z,2.35
2019-02-03T02:02:47.686Z,2.37
2019-02-03T02:03:47.695Z,2.38
2019-02-03T02:04:47.708Z,2.41
2019-02-03T02:05:47.724Z,2.33
2019-02-03T02:06:47.726Z,2.31
2019-02-03T02:07:51.759Z,2.31
2019-02-03T02:08:47.757Z,2.40
2019-02-03T02:09:47.771Z,2.45
2019-02-03T02:10:47.766Z,2.51
2019-02-03T02:11:47.776Z,2.51
2019-02-03T02:12:47.807Z,2.58
2019-02-03T02:13:47.804Z,2.55
2019-02-03T02:14:47.816Z,2.59
2019-02-03T02:15:47.817Z,2.55
2019-02-03T02:16:47.834Z,2.51
2019-02-03T02:17:47.839Z,2.52
2019-02-03T02:18:47.848Z,2.59
2019-02-03T02:19:47.871Z,2.53
2019-02-03T02:20:47.871Z,2.52
2019-02-03T02:21:47.885Z,2.55
2019-02-03T02:22:47.894Z,2.56
2019-02-03T02:23:47.918Z,2.58
2019-02-03T02:24:47.916Z,2.56
2019-02-03T02:25:47.931Z,2.48
2019-02-03T02:26:47.937Z,2.59
2019-02-03T02:27:47.948Z,2.55
2019-02-03T02:28:47.955Z,2.49
2019-02-03T02:29:47.965Z,2.56
2019-02-03T02:30:47.977Z,2.56
2019-02-03T02:31:47.996Z,2.63
2019-02-03T02:32:48.003Z,2.59
2019-02-03T02:33:48.016Z,2.59
2019-02-03T02:34:48.025Z,2.55
2019-02-03T02:35:48.033Z,2.49
2019-02-03T02:36:48.044Z,2.69
2019-02-03T02:37:48.061Z,2.59
2019-02-03T02:38:48.070Z,2.61
2019-02-03T02:39:48.103Z,2.66
2019-02-03T02:40:48.086Z,2.58
2019-02-03T02:41:48.120Z,2.49
2019-02-03T02:42:48.123Z,2.66
2019-02-03T02:43:48.132Z,2.52
2019-02-03T02:44:48.134Z,2.51
2019-02-03T02:45:48.140Z,2.56
2019-02-03T02:46:48.152Z,2.51
2019-02-03T02:47:48.166Z,2.48
2019-02-03T02:48:48.181Z,2.51
2019-02-03T02:49:48.192Z,2.52
2019-02-03T02:50:48.192Z,2.48
2019-02-03T02:51:48.207Z,2.46
2019-02-03T02:52:48.215Z,2.38
2019-02-03T02:53:48.230Z,2.38
2019-02-03T02:54:48.239Z,2.35
2019-02-03T02:55:48.249Z,2.38
2019-02-03T02:56:48.262Z,2.46
2019-02-03T02:57:48.267Z,2.55
2019-02-03T02:58:48.278Z,2.53
2019-02-03T02:59:48.288Z,2.49
2019-02-03T03:00:48.300Z,2.35
2019-02-03T03:01:48.309Z,2.48
2019-02-03T03:02:48.326Z,2.41
2019-02-03T03:03:48.337Z,2.35
2019-02-03T03:04:48.344Z,2.33
2019-02-03T03:05:48.352Z,2.51
2019-02-03T03:06:48.363Z,2.51
2019-02-03T03:07:48.377Z,2.56
2019-02-03T03:08:48.389Z,2.52
2019-02-03T03:38:08.636Z,2.69
2019-02-03T03:39:08.614Z,2.61
2019-02-03T03:41:00.542Z,2.63
2019-02-03T03:42:00.510Z,2.58
2019-02-03T03:43:52.406Z,2.56
2019-02-03T03:44:52.414Z,2.52
2019-02-03T03:46:44.316Z,2.64
2019-02-03T03:47:44.298Z,2.77
2019-02-03T03:49:36.691Z,2.76
2019-02-03T03:50:36.689Z,2.76
2019-02-03T03:52:29.105Z,2.77
2019-02-03T03:53:29.085Z,2.64
2019-02-03T03:55:20.981Z,2.66
2019-02-03T03:56:20.989Z,2.69
2019-02-03T03:58:12.912Z,2.70
2019-02-03T03:59:12.901Z,2.70
2019-02-03T04:01:04.813Z,2.66
2019-02-03T04:02:04.799Z,2.66
2019-02-03T04:03:56.710Z,2.71
2019-02-03T04:04:56.719Z,2.69
2019-02-03T04:06:48.639Z,2.67
2019-02-03T04:07:48.627Z,2.64
2019-02-03T04:09:40.537Z,2.64
2019-02-03T04:10:40.533Z,2.66
2019-02-03T04:11:40.537Z,2.67
2019-02-03T04:12:40.547Z,2.63
2019-02-03T04:13:40.570Z,2.67
2019-02-03T04:14:40.582Z,2.58
2019-02-03T04:15:40.581Z,2.67
2019-02-03T04:16:40.592Z,2.77
2019-02-03T04:17:40.626Z,2.77
2019-02-03T04:18:40.619Z,2.79
2019-02-03T04:19:40.622Z,2.85
2019-02-03T04:20:40.629Z,2.85
2019-02-03T04:21:40.646Z,2.89
2019-02-03T04:22:40.658Z,2.85
2019-02-03T04:23:40.668Z,2.87
2019-02-03T04:24:40.682Z,2.84
2019-02-03T04:25:40.710Z,2.74
2019-02-03T04:26:40.714Z,2.76
2019-02-03T04:27:40.708Z,2.79
2019-02-03T04:28:40.717Z,2.70
2019-02-03T04:29:40.725Z,2.71
2019-02-03T04:30:40.736Z,2.61
2019-02-03T04:31:40.745Z,2.64
2019-02-03T04:32:40.756Z,2.55
2019-02-03T04:33:40.870Z,2.49
2019-02-03T04:34:40.785Z,2.52
2019-02-03T04:35:40.786Z,2.46
2019-02-03T04:36:40.803Z,2.52
2019-02-03T04:37:40.830Z,2.40
2019-02-03T04:38:40.820Z,2.34
2019-02-03T04:39:40.828Z,2.45
2019-02-03T04:40:40.836Z,2.45
2019-02-03T04:41:40.851Z,2.37
2019-02-03T04:42:40.864Z,2.31
2019-02-03T04:43:40.882Z,2.31
2019-02-03T04:44:40.880Z,2.35
2019-02-03T04:45:40.893Z,2.33
2019-02-03T04:46:40.904Z,2.33
2019-02-03T04:47:40.912Z,2.33
2019-02-03T04:48:40.934Z,2.34
2019-02-03T04:49:40.936Z,2.40
2019-02-03T04:50:40.948Z,2.38
2019-02-03T04:51:40.969Z,2.48
2019-02-03T04:52:40.969Z,2.40
2019-02-03T04:53:41.033Z,2.44
2019-02-03T04:54:40.998Z,2.31
2019-02-03T04:55:41.000Z,2.40
2019-02-03T04:56:41.009Z,2.38
2019-02-03T04:57:41.019Z,2.46
2019-02-03T04:58:41.028Z,2.49
2019-02-03T04:59:41.046Z,2.51
2019-02-03T05:00:41.056Z,2.51
2019-02-03T05:01:41.061Z,2.52
2019-02-03T05:02:41.067Z,2.49
2019-02-03T05:03:41.089Z,2.49
2019-02-03T05:04:41.097Z,2.46
2019-02-03T05:05:41.099Z,2.49
2019-02-03T05:06:41.112Z,2.49
2019-02-03T05:07:41.123Z,2.49
2019-02-03T05:08:41.137Z,2.40
2019-02-03T05:09:41.151Z,2.51
2019-02-03T05:10:41.155Z,2.45
2019-02-03T05:11:41.165Z,2.41
2019-02-03T05:12:41.174Z,2.52
2019-02-03T05:13:41.188Z,2.37
2019-02-03T05:14:41.197Z,2.33
2019-02-03T05:15:41.208Z,2.27
2019-02-03T05:16:41.219Z,2.16
2019-02-03T05:17:41.232Z,2.13
2019-02-03T05:18:41.245Z,2.09
2019-02-03T05:19:41.247Z,1.97
2019-02-03T05:20:41.265Z,1.99
2019-02-03T05:21:41.274Z,1.99
2019-02-03T05:22:41.284Z,1.98
2019-02-03T05:23:41.292Z,1.90
2019-02-03T05:24:41.303Z,1.90
2019-02-03T05:25:41.316Z,1.87
2019-02-03T05:26:41.323Z,1.89
2019-02-03T05:27:41.330Z,1.91
2019-02-03T05:28:41.352Z,1.91
2019-02-03T05:29:41.358Z,1.89
2019-02-03T05:30:41.367Z,2.02
2019-02-03T05:31:41.381Z,2.02
2019-02-03T05:32:41.390Z,2.08
2019-02-03T05:33:41.394Z,2.01
2019-02-03T05:34:41.489Z,2.06
2019-02-03T05:35:41.415Z,2.01
2019-02-03T05:36:41.431Z,2.02
2019-02-03T05:37:41.439Z,2.09
2019-02-03T05:38:41.449Z,2.09
2019-02-03T05:39:41.468Z,2.20
2019-02-03T05:40:41.469Z,2.06
2019-02-03T05:41:41.521Z,2.19
2019-02-03T05:42:41.490Z,2.27
2019-02-03T05:43:41.499Z,2.33
2019-02-03T05:44:41.509Z,2.35
2019-02-03T05:45:41.525Z,2.37
2019-02-03T05:46:41.548Z,2.40
2019-02-03T05:47:41.554Z,2.40
2019-02-03T05:48:41.551Z,2.34
2019-02-03T05:49:41.566Z,2.41
2019-02-03T05:50:41.571Z,2.33
2019-02-03T05:51:41.649Z,2.38
2019-02-03T05:52:41.615Z,2.31
2019-02-03T05:53:41.604Z,2.30
2019-02-03T05:54:41.622Z,2.26
2019-02-03T05:55:41.631Z,2.30
2019-02-03T05:56:41.637Z,2.22
2019-02-03T05:57:41.650Z,2.20
2019-02-03T05:58:41.660Z,2.30
2019-02-03T05:59:41.666Z,2.30
2019-02-03T06:00:41.678Z,2.28
2019-02-03T06:01:41.690Z,2.28
2019-02-03T06:02:41.698Z,2.31
2019-02-03T06:03:41.708Z,2.38
2019-02-03T06:04:41.723Z,2.44
2019-02-03T06:05:41.730Z,2.45
2019-02-03T06:06:41.741Z,2.34
2019-02-03T06:07:41.755Z,2.37
2019-02-03T06:08:41.763Z,2.35
2019-02-03T06:09:41.772Z,2.40
2019-02-03T06:10:41.790Z,2.40
2019-02-03T06:11:41.800Z,2.40
2019-02-03T06:12:41.808Z,2.37
2019-02-03T06:13:41.940Z,2.38
2019-02-03T06:14:41.834Z,2.52
2019-02-03T06:15:41.837Z,2.53
2019-02-03T06:16:41.848Z,2.51
2019-02-03T06:17:41.876Z,2.61
2019-02-03T06:18:41.869Z,2.58
2019-02-03T06:19:41.889Z,2.58
2019-02-03T06:20:41.891Z,2.51
2019-02-03T06:21:41.913Z,2.58
2019-02-03T06:22:41.908Z,2.49
2019-02-03T06:23:41.922Z,2.51
2019-02-03T06:24:41.932Z,2.58
2019-02-03T06:25:41.941Z,2.67
2019-02-03T06:26:41.955Z,2.70
2019-02-03T06:27:41.965Z,2.66
2019-02-03T06:28:41.977Z,2.56
2019-02-03T06:29:41.986Z,2.63
2019-02-03T06:30:41.996Z,2.64
2019-02-03T06:31:42.012Z,2.48
2019-02-03T06:32:42.021Z,2.61
2019-02-03T06:33:42.033Z,2.52
2019-02-03T06:34:42.038Z,2.56
2019-02-03T06:35:42.049Z,2.51
2019-02-03T06:36:42.063Z,2.52
2019-02-03T06:37:42.080Z,2.41
2019-02-03T06:38:42.083Z,2.38
2019-02-03T06:39:48.820Z,2.35
2019-02-03T06:40:42.101Z,2.27
2019-02-03T06:41:42.115Z,2.27
2019-02-03T06:42:42.126Z,2.26
2019-02-03T06:43:42.136Z,2.19
2019-02-03T06:44:42.149Z,2.15
2019-02-03T06:45:42.161Z,2.17
2019-02-03T06:46:42.169Z,2.06
2019-02-03T06:47:42.177Z,2.10
2019-02-03T06:48:42.193Z,2.09
2019-02-03T06:49:42.204Z,2.10
2019-02-03T06:50:42.212Z,2.06
2019-02-03T06:51:42.218Z,2.10
2019-02-03T06:52:42.233Z,2.01
2019-02-03T06:53:42.244Z,2.06
2019-02-03T06:54:42.252Z,1.91
2019-02-03T06:55:42.262Z,1.94
2019-02-03T06:56:42.279Z,1.82
2019-02-03T06:57:42.348Z,1.87
2019-02-03T06:58:42.302Z,1.94
2019-02-03T06:59:50.355Z,1.89
2019-02-03T07:00:42.314Z,1.90
2019-02-03T07:01:42.326Z,1.90
2019-02-03T07:02:42.334Z,1.90
2019-02-03T07:03:42.345Z,1.93
2019-02-03T07:04:42.359Z,1.90
2019-02-03T07:05:42.370Z,1.91
2019-02-03T07:06:42.375Z,1.93
2019-02-03T07:07:42.390Z,1.89
2019-02-03T07:08:42.399Z,1.87
2019-02-03T07:09:42.409Z,1.91
2019-02-03T07:10:42.418Z,1.89
2019-02-03T07:11:42.432Z,1.97
2019-02-03T07:12:42.441Z,1.91
2019-02-03T07:13:42.452Z,1.87
2019-02-03T07:14:42.464Z,1.91
2019-02-03T07:15:42.469Z,1.98
2019-02-03T07:16:43.043Z,2.01
2019-02-03T07:17:42.495Z,1.89
2019-02-03T07:18:42.503Z,1.93
2019-02-03T07:19:42.515Z,1.89
2019-02-03T07:20:42.520Z,1.83
2019-02-03T07:21:42.534Z,1.93
2019-02-03T07:22:42.545Z,1.89
2019-02-03T07:23:42.556Z,1.94
2019-02-03T07:24:42.574Z,1.90
2019-02-03T07:25:42.569Z,1.93
2019-02-03T07:26:42.587Z,1.90
2019-02-03T07:27:42.589Z,1.90
2019-02-03T07:28:42.602Z,1.91
2019-02-03T07:29:42.614Z,1.89
2019-02-03T07:30:42.622Z,1.89
2019-02-03T07:31:42.631Z,1.94
2019-02-03T07:32:42.646Z,1.89
2019-02-03T07:33:42.666Z,1.94
2019-02-03T07:34:42.664Z,1.87
2019-02-03T07:35:42.672Z,1.98
2019-02-03T07:36:42.681Z,1.99
2019-02-03T07:37:42.693Z,1.89
2019-02-03T07:38:42.704Z,1.83
2019-02-03T07:39:42.716Z,1.87
2019-02-03T07:40:42.725Z,1.82
2019-02-03T07:41:42.769Z,1.78
2019-02-03T07:42:42.740Z,1.85
2019-02-03T07:43:42.752Z,1.83
2019-02-03T07:44:42.786Z,1.90
2019-02-03T07:45:42.776Z,1.89
2019-02-03T07:46:42.784Z,1.94
2019-02-03T07:47:42.799Z,1.97
2019-02-03T07:48:42.809Z,1.91
2019-02-03T07:49:42.813Z,1.91
2019-02-03T07:50:42.824Z,1.99
2019-02-03T07:51:42.835Z,1.97
2019-02-03T07:52:42.842Z,2.10
2019-02-03T07:53:42.858Z,2.17
2019-02-03T07:54:42.866Z,2.12
2019-02-03T07:55:42.879Z,2.09
2019-02-03T07:56:42.889Z,2.16
2019-02-03T07:57:42.898Z,2.06
2019-02-03T07:58:42.907Z,2.15
2019-02-03T07:59:42.917Z,2.16
2019-02-03T08:00:42.923Z,2.12
2019-02-03T08:01:42.947Z,2.16
2019-02-03T08:02:42.947Z,2.20
2019-02-03T08:03:42.958Z,2.27
2019-02-03T08:04:42.988Z,2.27
2019-02-03T08:05:42.977Z,2.35
2019-02-03T08:06:43.103Z,2.37
2019-02-03T08:07:42.998Z,2.40
2019-02-03T08:08:43.010Z,2.44
2019-02-03T08:09:43.021Z,2.38
2019-02-03T08:10:43.039Z,2.40
2019-02-03T08:11:43.043Z,2.40
2019-02-03T08:12:43.050Z,2.33
2019-02-03T08:13:43.060Z,2.40
2019-02-03T08:14:43.072Z,2.52
2019-02-03T08:15:43.083Z,2.48
2019-02-03T08:16:43.093Z,2.56
2019-02-03T08:17:43.103Z,2.48
2019-02-03T08:18:43.112Z,2.51
2019-02-03T08:19:43.118Z,2.53
2019-02-03T08:20:43.140Z,2.53
2019-02-03T08:21:43.145Z,2.64
2019-02-03T08:22:43.155Z,2.63
2019-02-03T08:23:43.164Z,2.67
2019-02-03T08:24:43.178Z,2.74
2019-02-03T08:25:43.189Z,2.61
2019-02-03T08:26:43.193Z,2.73
2019-02-03T08:27:43.207Z,2.70
2019-02-03T08:28:43.220Z,2.76
2019-02-03T08:29:43.233Z,2.77
2019-02-03T08:30:43.262Z,2.87
2019-02-03T08:31:43.254Z,2.87
2019-02-03T08:32:43.258Z,2.88
2019-02-03T08:33:43.270Z,2.88
2019-02-03T08:34:43.291Z,2.89
2019-02-03T08:35:43.288Z,2.87
2019-02-03T08:36:43.300Z,2.97
2019-02-03T08:37:43.309Z,2.94
2019-02-03T08:38:43.323Z,3.00
2019-02-03T08:39:43.339Z,2.97
2019-02-03T08:40:43.346Z,2.98
2019-02-03T08:41:43.350Z,2.89
2019-02-03T08:42:43.363Z,3.03
2019-02-03T08:43:43.378Z,2.91
2019-02-03T08:44:43.384Z,3.03
2019-02-03T08:45:43.395Z,3.07
2019-02-03T08:46:43.412Z,3.15
2019-02-03T08:47:45.361Z,3.00
2019-02-03T08:48:43.429Z,3.06
2019-02-03T08:49:43.441Z,3.07
2019-02-03T08:50:43.459Z,2.97
2019-02-03T08:51:43.477Z,3.09
2019-02-03T08:52:43.470Z,3.03
2019-02-03T08:53:43.483Z,3.07
2019-02-03T08:54:56.809Z,3.15
2019-02-03T08:55:43.515Z,3.20
2019-02-03T08:56:43.519Z,3.23
2019-02-03T08:57:43.525Z,3.21
2019-02-03T08:58:43.541Z,3.25
2019-02-03T08:59:43.544Z,3.28
2019-02-03T09:00:43.556Z,3.25
2019-02-03T09:01:43.584Z,3.30
2019-02-03T09:02:43.573Z,3.31
2019-02-03T09:03:43.586Z,3.39
2019-02-03T09:04:43.596Z,3.39
2019-02-03T09:05:43.613Z,3.42
2019-02-03T09:06:43.616Z,3.40
2019-02-03T09:07:43.641Z,3.42
2019-02-03T09:08:43.645Z,3.44
2019-02-03T09:09:43.655Z,3.47
2019-02-03T09:10:48.460Z,3.44
2019-02-03T09:11:43.675Z,3.49
2019-02-03T09:12:43.684Z,3.47
2019-02-03T09:13:43.696Z,3.50
2019-02-03T09:14:43.706Z,3.46
2019-02-03T09:15:43.723Z,3.46
2019-02-03T09:16:43.732Z,3.61
2019-02-03T09:17:43.741Z,3.54
2019-02-03T09:18:43.753Z,3.67
2019-02-03T09:19:43.865Z,3.65
2019-02-03T09:20:43.775Z,3.70
2019-02-03T09:21:43.785Z,3.65
2019-02-03T09:22:43.801Z,3.79
2019-02-03T09:23:43.815Z,3.76
2019-02-03T09:24:43.814Z,3.78
2019-02-03T09:25:43.833Z,3.88
2019-02-03T09:26:43.837Z,3.82
2019-02-03T09:27:43.851Z,3.92
2019-02-03T09:28:43.872Z,3.92
2019-02-03T09:29:43.874Z,3.94
2019-02-03T09:30:43.891Z,4.03
2019-02-03T09:31:43.893Z,3.97
2019-02-03T09:32:43.903Z,4.00
2019-02-03T09:33:43.919Z,4.04
2019-02-03T09:34:43.932Z,4.04
2019-02-03T09:35:43.939Z,4.06
2019-02-03T09:36:43.952Z,4.08
2019-02-03T09:37:43.963Z,4.10
2019-02-03T09:38:43.977Z,4.07
2019-02-03T09:39:44.020Z,4.08
2019-02-03T09:40:43.994Z,4.12
2019-02-03T09:41:44.007Z,4.08
2019-02-03T09:42:46.965Z,4.07
2019-02-03T09:43:44.028Z,4.04
2019-02-03T09:44:44.041Z,4.15
2019-02-03T09:45:44.057Z,4.14
2019-02-03T09:46:44.073Z,4.19
2019-02-03T09:47:44.071Z,4.24
2019-02-03T09:48:44.116Z,4.29
2019-02-03T09:49:44.093Z,4.24
2019-02-03T09:50:44.107Z,4.34
2019-02-03T09:51:44.118Z,4.37
2019-02-03T09:52:44.132Z,4.39
2019-02-03T09:53:44.155Z,4.34
2019-02-03T09:54:44.146Z,4.46
2019-02-03T09:55:44.161Z,4.52
2019-02-03T09:56:44.178Z,4.37
2019-02-03T09:57:44.184Z,4.46
2019-02-03T09:58:44.210Z,4.42
2019-02-03T09:59:44.204Z,4.43
2019-02-03T10:00:44.218Z,4.55
2019-02-03T10:01:44.228Z,4.58
2019-02-03T10:02:44.242Z,4.59
2019-02-03T10:03:44.255Z,4.58
2019-02-03T10:04:44.260Z,4.61
2019-02-03T10:05:44.276Z,4.62
2019-02-03T10:06:44.287Z,4.61
2019-02-03T10:07:44.305Z,4.65
2019-02-03T10:08:44.312Z,4.61
2019-02-03T10:09:44.322Z,4.69
2019-02-03T10:10:44.330Z,4.67
2019-02-03T10:11:44.343Z,4.64
2019-02-03T10:12:44.360Z,4.73
2019-02-03T10:13:44.511Z,4.72
2019-02-03T10:14:44.376Z,4.79
2019-02-03T10:15:44.392Z,4.80
2019-02-03T10:16:47.346Z,4.83
2019-02-03T10:17:44.416Z,4.91
2019-02-03T10:18:44.429Z,4.89
2019-02-03T10:19:44.429Z,4.95
2019-02-03T10:20:44.444Z,4.96
2019-02-03T10:21:44.487Z,4.96
2019-02-03T10:22:44.466Z,4.99
2019-02-03T10:23:44.477Z,4.96
2019-02-03T10:24:44.492Z,4.92
2019-02-03T10:25:44.509Z,5.01
2019-02-03T10:26:44.533Z,4.99
2019-02-03T10:27:44.539Z,4.96
2019-02-03T10:28:46.569Z,5.01
2019-02-03T10:29:44.552Z,5.05
2019-02-03T10:30:44.559Z,4.96
2019-02-03T10:31:44.569Z,5.07
2019-02-03T10:32:44.583Z,5.05
2019-02-03T10:33:44.628Z,5.13
2019-02-03T10:34:44.602Z,5.16
2019-02-03T10:35:44.616Z,5.20
2019-02-03T10:36:44.644Z,5.22
2019-02-03T10:38:05.651Z,5.25
2019-02-03T10:38:44.654Z,5.30
2019-02-03T10:39:44.661Z,5.31
2019-02-03T10:40:44.677Z,5.32
2019-02-03T10:41:44.686Z,5.31
2019-02-03T10:42:44.708Z,5.35
2019-02-03T10:43:44.710Z,5.34
2019-02-03T10:44:44.722Z,5.34
2019-02-03T10:45:44.735Z,5.35
2019-02-03T10:46:44.751Z,5.40
2019-02-03T10:47:44.753Z,5.31
2019-02-03T10:48:44.776Z,5.34
2019-02-03T10:49:46.662Z,5.45
2019-02-03T10:50:44.800Z,5.48
2019-02-03T10:51:44.805Z,5.45
2019-02-03T10:52:44.816Z,5.52
2019-02-03T10:53:44.827Z,5.56
2019-02-03T10:54:44.839Z,5.67
2019-02-03T10:55:44.853Z,5.55
2019-02-03T10:56:44.861Z,5.67
2019-02-03T10:57:44.872Z,5.71
2019-02-03T10:58:44.888Z,5.66
2019-02-03T10:59:44.897Z,5.64
2019-02-03T11:00:44.911Z,5.67
2019-02-03T11:01:45.043Z,5.74
2019-02-03T11:02:44.931Z,5.74
2019-02-03T11:03:45.005Z,5.67
2019-02-03T11:04:44.958Z,5.73
2019-02-03T11:05:44.975Z,5.75
2019-02-03T11:06:44.979Z,5.77
2019-02-03T11:07:44.990Z,5.85
2019-02-03T11:08:45.026Z,5.83
2019-02-03T11:09:45.015Z,5.92
2019-02-03T11:10:45.039Z,5.83
2019-02-03T11:11:45.039Z,5.93
2019-02-03T11:12:45.048Z,5.93
2019-02-03T11:13:45.060Z,5.93
2019-02-03T11:14:45.072Z,6.09
2019-02-03T11:15:45.083Z,6.04
2019-02-03T11:16:45.106Z,6.07
2019-02-03T11:17:45.107Z,6.07
2019-02-03T11:18:45.122Z,6.13
2019-02-03T11:19:45.134Z,6.06
2019-02-03T11:20:45.146Z,6.07
2019-02-03T11:21:45.173Z,6.10
2019-02-03T11:22:45.172Z,6.10
2019-02-03T11:23:45.244Z,6.25
2019-02-03T11:24:45.189Z,6.26
2019-02-03T11:25:45.209Z,6.29
2019-02-03T11:26:45.222Z,6.21
2019-02-03T11:27:45.259Z,6.29
2019-02-03T11:28:45.241Z,6.19
2019-02-03T11:29:45.250Z,6.26
2019-02-03T11:30:45.268Z,6.25
2019-02-03T11:31:45.276Z,6.26
2019-02-03T11:32:45.292Z,6.40
2019-02-03T11:33:45.311Z,6.32
2019-02-03T11:34:45.334Z,6.40
2019-02-03T11:35:45.443Z,6.35
2019-02-03T11:36:45.334Z,6.44
2019-02-03T11:37:45.371Z,6.38
2019-02-03T11:38:45.379Z,6.41
2019-02-03T11:39:45.370Z,6.35
2019-02-03T11:40:45.388Z,6.46
2019-02-03T11:41:49.411Z,6.51
2019-02-03T11:42:45.405Z,6.35
2019-02-03T11:43:45.423Z,6.47
2019-02-03T11:44:45.436Z,6.50
2019-02-03T11:45:45.445Z,6.44
2019-02-03T11:46:45.470Z,6.53
2019-02-03T11:47:45.470Z,6.48
2019-02-03T11:48:45.476Z,6.61
2019-02-03T11:49:45.498Z,6.58
2019-02-03T11:50:45.503Z,6.56
2019-02-03T11:51:45.513Z,6.56
2019-02-03T11:52:45.534Z,6.54
2019-02-03T11:53:45.547Z,6.54
2019-02-03T11:54:45.553Z,6.61
2019-02-03T11:55:45.563Z,6.61
2019-02-03T11:56:45.575Z,6.58
2019-02-03T11:57:45.590Z,6.58
2019-02-03T11:58:45.602Z,6.58
2019-02-03T11:59:45.613Z,6.63
2019-02-03T12:00:45.624Z,6.69
2019-02-03T12:01:45.639Z,6.72
2019-02-03T12:02:45.648Z,6.80
2019-02-03T12:03:45.664Z,6.72
2019-02-03T12:04:45.686Z,6.68
2019-02-03T12:05:45.691Z,6.81
2019-02-03T12:06:45.695Z,6.69
2019-02-03T12:07:45.713Z,6.81
2019-02-03T12:08:45.748Z,6.80
2019-02-03T12:09:45.736Z,6.73
2019-02-03T12:10:45.748Z,6.84
2019-02-03T12:11:45.755Z,6.79
2019-02-03T12:12:45.770Z,6.89
2019-02-03T12:13:45.929Z,6.76
2019-02-03T12:14:45.795Z,6.94
2019-02-03T12:15:47.921Z,6.79
2019-02-03T12:16:45.823Z,6.79
2019-02-03T12:17:45.842Z,6.87
2019-02-03T12:18:45.853Z,6.84
2019-02-03T12:19:45.942Z,6.90
2019-02-03T12:20:45.871Z,6.98
2019-02-03T12:21:45.883Z,6.97
2019-02-03T12:22:45.895Z,6.89
2019-02-03T12:23:45.914Z,6.91
2019-02-03T12:24:45.919Z,6.94
2019-02-03T12:25:45.934Z,6.97
2019-02-03T12:26:45.949Z,6.95
2019-02-03T12:27:45.954Z,6.98
2019-02-03T12:28:45.967Z,6.99
2019-02-03T12:29:46.004Z,6.99
2019-02-03T12:30:46.012Z,6.98
2019-02-03T12:31:46.006Z,6.98
2019-02-03T12:32:46.022Z,6.99
2019-02-03T12:33:46.028Z,6.99
2019-02-03T12:34:46.041Z,7.02
2019-02-03T12:35:46.059Z,6.95
2019-02-03T12:36:46.068Z,7.01
2019-02-03T12:37:46.082Z,7.01
2019-02-03T12:38:46.097Z,7.05
2019-02-03T12:39:46.109Z,6.84
2019-02-03T12:40:46.122Z,6.89
2019-02-03T12:41:47.955Z,6.95
2019-02-03T12:42:46.138Z,7.07
2019-02-03T12:43:46.167Z,7.13
2019-02-03T12:44:46.164Z,6.99
2019-02-03T12:45:46.182Z,7.13
2019-02-03T12:46:46.192Z,7.16
2019-02-03T12:47:46.201Z,7.15
2019-02-03T12:48:46.222Z,7.20
2019-02-03T12:49:46.229Z,7.17
2019-02-03T12:50:46.238Z,7.24
2019-02-03T12:51:46.251Z,7.17
2019-02-03T12:52:46.267Z,7.15
2019-02-03T12:53:46.282Z,7.12
2019-02-03T12:54:46.290Z,7.27
2019-02-03T12:55:46.314Z,7.23
2019-02-03T12:56:46.326Z,7.41
2019-02-03T12:57:46.826Z,7.34
2019-02-03T12:58:46.345Z,7.47
2019-02-03T12:59:46.377Z,7.52
2019-02-03T13:00:49.359Z,7.42
2019-02-03T13:01:46.379Z,7.38
2019-02-03T13:02:46.447Z,7.38
2019-02-03T13:03:46.405Z,7.53
2019-02-03T13:04:46.424Z,7.59
2019-02-03T13:05:46.430Z,7.66
2019-02-03T13:06:46.445Z,7.77
2019-02-03T13:07:46.462Z,7.77
2019-02-03T13:08:46.465Z,7.74
2019-02-03T13:09:46.477Z,7.58
2019-02-03T13:10:46.498Z,7.74
2019-02-03T13:11:46.506Z,7.74
2019-02-03T13:12:46.515Z,7.78
2019-02-03T13:13:46.532Z,7.81
2019-02-03T13:14:46.546Z,7.81
2019-02-03T13:15:46.566Z,7.81
2019-02-03T13:16:46.568Z,7.85
2019-02-03T13:17:46.591Z,7.92
2019-02-03T13:18:46.635Z,7.84
2019-02-03T13:19:46.607Z,7.89
2019-02-03T13:20:46.621Z,7.79
2019-02-03T13:21:46.633Z,7.92
2019-02-03T13:22:46.661Z,7.89
2019-02-03T13:23:46.666Z,7.77
2019-02-03T13:24:46.675Z,7.82
2019-02-03T13:25:46.689Z,7.60
2019-02-03T13:26:46.701Z,7.59
2019-02-03T13:27:46.717Z,7.77
2019-02-03T13:28:46.730Z,7.72
2019-02-03T13:29:46.746Z,7.59
2019-02-03T13:30:46.750Z,7.60
2019-02-03T13:31:46.765Z,7.53
2019-02-03T13:32:46.775Z,7.53
2019-02-03T13:33:46.791Z,7.53
2019-02-03T13:34:46.806Z,7.52
2019-02-03T13:35:46.826Z,7.59
2019-02-03T13:36:46.834Z,7.49
2019-02-03T13:37:46.856Z,7.60
2019-02-03T13:38:46.861Z,7.59
2019-02-03T13:39:46.871Z,7.62
2019-02-03T13:40:46.881Z,7.67
2019-02-03T13:41:46.899Z,7.53
2019-02-03T13:42:46.921Z,7.55
2019-02-03T13:43:46.921Z,7.44
2019-02-03T13:44:46.939Z,7.41
2019-02-03T13:45:46.949Z,7.44
2019-02-03T13:46:46.964Z,7.52
2019-02-03T13:47:46.981Z,7.52
2019-02-03T13:48:46.991Z,7.67
2019-02-03T13:49:47.002Z,7.75
2019-02-03T13:50:47.014Z,7.82
2019-02-03T13:51:47.026Z,7.77
2019-02-03T13:52:47.042Z,7.75
2019-02-03T13:53:47.056Z,7.78
2019-02-03T13:54:47.074Z,7.71
2019-02-03T13:55:47.077Z,7.60
2019-02-03T13:56:47.091Z,7.75